sensor_id;sensor_type;location;lat;lon;timestamp;P1;durP1;ratioP1;P2;durP2;ratioP2
75400;SDS011;63974;47.538;18.972;2023-02-28T00:01:12;8.27;;;4.07;;
75400;SDS011;63974;47.538;18.972;2023-02-28T00:04:16;9.68;;;4.38;;
75400;SDS011;63974;47.538;18.972;2023-02-28T00:07:19;8.52;;;4.72;;
75400;SDS011;63974;47.538;18.972;2023-02-28T00:10:23;12.45;;;4.97;;
75400;SDS011;63974;47.538;18.972;2023-02-28T00:13:28;10.33;;;4.53;;
75400;SDS011;63974;47.538;18.972;2023-02-28T00:16:31;10.75;;;4.32;;
75400;SDS011;63974;47.538;18.972;2023-02-28T00:19:34;11.02;;;4.22;;
75400;SDS011;63974;47.538;18.972;2023-02-28T00:22:37;9.05;;;4.43;;
75400;SDS011;63974;47.538;18.972;2023-02-28T00:25:42;13.25;;;6.30;;
75400;SDS011;63974;47.538;18.972;2023-02-28T00:28:45;11.07;;;4.90;;
75400;SDS011;63974;47.538;18.972;2023-02-28T00:31:48;11.27;;;4.88;;
75400;SDS011;63974;47.538;18.972;2023-02-28T00:34:51;10.10;;;4.85;;
75400;SDS011;63974;47.538;18.972;2023-02-28T00:37:53;9.15;;;4.20;;
75400;SDS011;63974;47.538;18.972;2023-02-28T00:40:56;13.35;;;5.25;;
75400;SDS011;63974;47.538;18.972;2023-02-28T00:44:00;13.60;;;5.30;;
75400;SDS011;63974;47.538;18.972;2023-02-28T00:47:02;10.73;;;4.80;;
75400;SDS011;63974;47.538;18.972;2023-02-28T00:50:06;13.50;;;4.75;;
75400;SDS011;63974;47.538;18.972;2023-02-28T00:53:11;11.50;;;4.53;;
75400;SDS011;63974;47.538;18.972;2023-02-28T00:56:14;9.05;;;4.20;;
75400;SDS011;63974;47.538;18.972;2023-02-28T00:59:17;11.00;;;4.53;;
75400;SDS011;63974;47.538;18.972;2023-02-28T01:02:21;12.02;;;4.75;;
75400;SDS011;63974;47.538;18.972;2023-02-28T01:05:27;12.88;;;4.55;;
75400;SDS011;63974;47.538;18.972;2023-02-28T01:08:30;14.05;;;5.60;;
75400;SDS011;63974;47.538;18.972;2023-02-28T01:11:33;14.23;;;5.75;;
75400;SDS011;63974;47.538;18.972;2023-02-28T01:14:36;13.43;;;5.93;;
75400;SDS011;63974;47.538;18.972;2023-02-28T01:17:39;10.93;;;5.10;;
75400;SDS011;63974;47.538;18.972;2023-02-28T01:20:42;12.40;;;5.55;;
75400;SDS011;63974;47.538;18.972;2023-02-28T01:23:45;12.27;;;5.55;;
75400;SDS011;63974;47.538;18.972;2023-02-28T01:26:49;12.30;;;5.63;;
75400;SDS011;63974;47.538;18.972;2023-02-28T01:29:52;12.10;;;5.50;;
75400;SDS011;63974;47.538;18.972;2023-02-28T01:32:55;15.75;;;5.97;;
75400;SDS011;63974;47.538;18.972;2023-02-28T01:36:00;11.82;;;5.05;;
75400;SDS011;63974;47.538;18.972;2023-02-28T01:39:07;11.55;;;5.03;;
75400;SDS011;63974;47.538;18.972;2023-02-28T01:42:09;12.10;;;5.50;;
75400;SDS011;63974;47.538;18.972;2023-02-28T01:45:23;16.47;;;6.57;;
75400;SDS011;63974;47.538;18.972;2023-02-28T01:48:32;11.82;;;4.72;;
75400;SDS011;63974;47.538;18.972;2023-02-28T01:54:54;11.13;;;5.35;;
75400;SDS011;63974;47.538;18.972;2023-02-28T01:58:00;19.65;;;6.45;;
75400;SDS011;63974;47.538;18.972;2023-02-28T02:01:05;13.20;;;5.40;;
75400;SDS011;63974;47.538;18.972;2023-02-28T02:04:08;14.82;;;5.40;;
75400;SDS011;63974;47.538;18.972;2023-02-28T02:07:11;14.40;;;5.88;;
75400;SDS011;63974;47.538;18.972;2023-02-28T02:10:21;13.40;;;5.72;;
75400;SDS011;63974;47.538;18.972;2023-02-28T02:20:19;15.60;;;6.07;;
75400;SDS011;63974;47.538;18.972;2023-02-28T02:27:25;13.40;;;5.10;;
75400;SDS011;63974;47.538;18.972;2023-02-28T02:34:16;15.00;;;5.07;;
75400;SDS011;63974;47.538;18.972;2023-02-28T02:47:33;16.92;;;7.05;;
75400;SDS011;63974;47.538;18.972;2023-02-28T02:50:41;14.80;;;5.07;;
75400;SDS011;63974;47.538;18.972;2023-02-28T02:53:54;14.05;;;5.60;;
75400;SDS011;63974;47.538;18.972;2023-02-28T02:57:23;13.15;;;6.13;;
75400;SDS011;63974;47.538;18.972;2023-02-28T03:00:37;10.27;;;5.38;;
75400;SDS011;63974;47.538;18.972;2023-02-28T03:03:45;13.35;;;5.18;;
75400;SDS011;63974;47.538;18.972;2023-02-28T03:06:50;15.13;;;6.07;;
75400;SDS011;63974;47.538;18.972;2023-02-28T03:09:57;14.02;;;5.80;;
75400;SDS011;63974;47.538;18.972;2023-02-28T03:13:04;17.45;;;5.50;;
75400;SDS011;63974;47.538;18.972;2023-02-28T03:24:41;14.43;;;5.40;;
75400;SDS011;63974;47.538;18.972;2023-02-28T03:27:27;12.00;;;5.22;;
75400;SDS011;63974;47.538;18.972;2023-02-28T03:36:45;11.55;;;5.88;;
75400;SDS011;63974;47.538;18.972;2023-02-28T03:39:55;13.90;;;5.00;;
75400;SDS011;63974;47.538;18.972;2023-02-28T03:43:02;12.40;;;5.10;;
75400;SDS011;63974;47.538;18.972;2023-02-28T03:46:12;10.20;;;4.57;;
75400;SDS011;63974;47.538;18.972;2023-02-28T03:49:20;12.77;;;5.00;;
75400;SDS011;63974;47.538;18.972;2023-02-28T03:52:28;11.57;;;4.65;;
75400;SDS011;63974;47.538;18.972;2023-02-28T03:55:38;10.80;;;4.20;;
75400;SDS011;63974;47.538;18.972;2023-02-28T04:01:50;9.27;;;3.58;;
75400;SDS011;63974;47.538;18.972;2023-02-28T04:04:54;10.30;;;4.00;;
75400;SDS011;63974;47.538;18.972;2023-02-28T04:08:04;7.78;;;4.22;;
75400;SDS011;63974;47.538;18.972;2023-02-28T04:11:12;11.10;;;5.10;;
75400;SDS011;63974;47.538;18.972;2023-02-28T04:14:25;11.30;;;4.47;;
75400;SDS011;63974;47.538;18.972;2023-02-28T04:17:29;11.30;;;4.43;;
75400;SDS011;63974;47.538;18.972;2023-02-28T04:20:31;13.13;;;4.70;;
75400;SDS011;63974;47.538;18.972;2023-02-28T04:23:34;11.25;;;4.78;;
75400;SDS011;63974;47.538;18.972;2023-02-28T04:26:37;8.77;;;4.13;;
75400;SDS011;63974;47.538;18.972;2023-02-28T04:29:40;11.38;;;4.53;;
75400;SDS011;63974;47.538;18.972;2023-02-28T04:32:47;10.07;;;5.45;;
75400;SDS011;63974;47.538;18.972;2023-02-28T04:36:06;11.98;;;4.47;;
75400;SDS011;63974;47.538;18.972;2023-02-28T04:39:11;9.05;;;4.15;;
75400;SDS011;63974;47.538;18.972;2023-02-28T04:42:14;10.57;;;3.83;;
75400;SDS011;63974;47.538;18.972;2023-02-28T04:45:17;10.43;;;4.63;;
75400;SDS011;63974;47.538;18.972;2023-02-28T04:48:20;9.30;;;4.07;;
75400;SDS011;63974;47.538;18.972;2023-02-28T04:51:23;11.30;;;4.00;;
75400;SDS011;63974;47.538;18.972;2023-02-28T04:54:26;9.10;;;3.90;;
75400;SDS011;63974;47.538;18.972;2023-02-28T04:57:30;9.43;;;3.57;;
75400;SDS011;63974;47.538;18.972;2023-02-28T05:00:33;8.70;;;4.47;;
75400;SDS011;63974;47.538;18.972;2023-02-28T05:03:36;11.27;;;4.30;;
75400;SDS011;63974;47.538;18.972;2023-02-28T05:06:39;9.35;;;4.30;;
75400;SDS011;63974;47.538;18.972;2023-02-28T05:09:42;9.15;;;4.43;;
75400;SDS011;63974;47.538;18.972;2023-02-28T05:12:44;11.67;;;5.33;;
75400;SDS011;63974;47.538;18.972;2023-02-28T05:15:47;9.10;;;4.18;;
75400;SDS011;63974;47.538;18.972;2023-02-28T05:18:50;11.05;;;4.57;;
75400;SDS011;63974;47.538;18.972;2023-02-28T05:21:56;11.75;;;5.55;;
75400;SDS011;63974;47.538;18.972;2023-02-28T05:24:59;15.70;;;6.13;;
75400;SDS011;63974;47.538;18.972;2023-02-28T05:28:01;8.70;;;3.90;;
75400;SDS011;63974;47.538;18.972;2023-02-28T05:31:04;11.23;;;4.53;;
75400;SDS011;63974;47.538;18.972;2023-02-28T05:34:07;9.88;;;4.65;;
75400;SDS011;63974;47.538;18.972;2023-02-28T05:37:13;10.27;;;4.78;;
75400;SDS011;63974;47.538;18.972;2023-02-28T05:40:18;8.15;;;3.55;;
75400;SDS011;63974;47.538;18.972;2023-02-28T05:43:22;11.67;;;4.07;;
75400;SDS011;63974;47.538;18.972;2023-02-28T05:46:25;17.58;;;6.60;;
75400;SDS011;63974;47.538;18.972;2023-02-28T05:49:29;8.52;;;3.72;;
75400;SDS011;63974;47.538;18.972;2023-02-28T05:52:31;8.82;;;4.15;;
75400;SDS011;63974;47.538;18.972;2023-02-28T05:55:34;8.73;;;4.53;;
75400;SDS011;63974;47.538;18.972;2023-02-28T05:58:38;11.40;;;4.37;;
75400;SDS011;63974;47.538;18.972;2023-02-28T06:01:41;10.48;;;4.28;;
75400;SDS011;63974;47.538;18.972;2023-02-28T06:04:52;10.50;;;4.20;;
75400;SDS011;63974;47.538;18.972;2023-02-28T06:07:55;9.77;;;4.38;;
75400;SDS011;63974;47.538;18.972;2023-02-28T06:10:58;10.00;;;3.67;;
75400;SDS011;63974;47.538;18.972;2023-02-28T06:14:05;8.50;;;3.90;;
75400;SDS011;63974;47.538;18.972;2023-02-28T06:17:08;9.45;;;4.15;;
75400;SDS011;63974;47.538;18.972;2023-02-28T06:20:11;8.85;;;3.92;;
75400;SDS011;63974;47.538;18.972;2023-02-28T06:23:18;10.80;;;4.60;;
75400;SDS011;63974;47.538;18.972;2023-02-28T06:26:20;8.18;;;3.58;;
75400;SDS011;63974;47.538;18.972;2023-02-28T06:29:24;8.13;;;3.87;;
75400;SDS011;63974;47.538;18.972;2023-02-28T06:32:27;7.93;;;4.13;;
75400;SDS011;63974;47.538;18.972;2023-02-28T06:35:30;8.32;;;3.90;;
75400;SDS011;63974;47.538;18.972;2023-02-28T06:38:33;7.53;;;3.58;;
75400;SDS011;63974;47.538;18.972;2023-02-28T06:41:37;8.05;;;4.35;;
75400;SDS011;63974;47.538;18.972;2023-02-28T06:44:56;9.90;;;3.87;;
75400;SDS011;63974;47.538;18.972;2023-02-28T06:47:59;10.23;;;4.43;;
75400;SDS011;63974;47.538;18.972;2023-02-28T06:51:03;11.43;;;4.45;;
75400;SDS011;63974;47.538;18.972;2023-02-28T06:54:11;10.48;;;4.90;;
75400;SDS011;63974;47.538;18.972;2023-02-28T06:57:14;10.82;;;4.80;;
75400;SDS011;63974;47.538;18.972;2023-02-28T07:00:17;10.47;;;4.57;;
75400;SDS011;63974;47.538;18.972;2023-02-28T07:03:20;11.23;;;4.57;;
75400;SDS011;63974;47.538;18.972;2023-02-28T07:06:23;10.55;;;5.43;;
75400;SDS011;63974;47.538;18.972;2023-02-28T07:09:27;9.88;;;4.22;;
75400;SDS011;63974;47.538;18.972;2023-02-28T07:12:32;10.15;;;4.90;;
75400;SDS011;63974;47.538;18.972;2023-02-28T07:15:38;10.70;;;4.37;;
75400;SDS011;63974;47.538;18.972;2023-02-28T07:18:45;11.55;;;4.18;;
75400;SDS011;63974;47.538;18.972;2023-02-28T07:21:48;10.65;;;5.07;;
75400;SDS011;63974;47.538;18.972;2023-02-28T07:24:51;11.93;;;5.10;;
75400;SDS011;63974;47.538;18.972;2023-02-28T07:27:55;11.80;;;5.78;;
75400;SDS011;63974;47.538;18.972;2023-02-28T07:31:05;12.63;;;5.87;;
75400;SDS011;63974;47.538;18.972;2023-02-28T07:34:09;12.25;;;4.88;;
75400;SDS011;63974;47.538;18.972;2023-02-28T07:37:12;10.70;;;5.00;;
75400;SDS011;63974;47.538;18.972;2023-02-28T07:40:15;11.30;;;5.85;;
75400;SDS011;63974;47.538;18.972;2023-02-28T07:43:20;13.43;;;4.82;;
75400;SDS011;63974;47.538;18.972;2023-02-28T07:46:23;13.87;;;5.90;;
75400;SDS011;63974;47.538;18.972;2023-02-28T07:49:26;15.32;;;7.03;;
75400;SDS011;63974;47.538;18.972;2023-02-28T07:52:32;12.93;;;6.45;;
75400;SDS011;63974;47.538;18.972;2023-02-28T07:55:35;14.05;;;5.63;;
75400;SDS011;63974;47.538;18.972;2023-02-28T07:58:38;12.93;;;6.28;;
75400;SDS011;63974;47.538;18.972;2023-02-28T08:01:42;15.70;;;6.17;;
75400;SDS011;63974;47.538;18.972;2023-02-28T08:04:47;16.27;;;6.70;;
75400;SDS011;63974;47.538;18.972;2023-02-28T08:07:50;13.32;;;6.03;;
75400;SDS011;63974;47.538;18.972;2023-02-28T08:10:53;15.68;;;6.28;;
75400;SDS011;63974;47.538;18.972;2023-02-28T08:13:58;14.77;;;6.68;;
75400;SDS011;63974;47.538;18.972;2023-02-28T08:17:02;12.47;;;5.53;;
75400;SDS011;63974;47.538;18.972;2023-02-28T08:20:06;14.00;;;5.75;;
75400;SDS011;63974;47.538;18.972;2023-02-28T08:23:10;10.57;;;5.75;;
75400;SDS011;63974;47.538;18.972;2023-02-28T08:26:12;10.52;;;4.85;;
75400;SDS011;63974;47.538;18.972;2023-02-28T08:29:15;11.23;;;6.30;;
75400;SDS011;63974;47.538;18.972;2023-02-28T08:32:19;14.57;;;6.43;;
75400;SDS011;63974;47.538;18.972;2023-02-28T08:35:31;15.35;;;6.30;;
75400;SDS011;63974;47.538;18.972;2023-02-28T08:38:34;12.05;;;6.57;;
75400;SDS011;63974;47.538;18.972;2023-02-28T08:41:38;16.05;;;7.18;;
75400;SDS011;63974;47.538;18.972;2023-02-28T08:44:41;16.10;;;6.05;;
75400;SDS011;63974;47.538;18.972;2023-02-28T08:47:44;14.23;;;6.53;;
75400;SDS011;63974;47.538;18.972;2023-02-28T08:50:54;12.93;;;6.32;;
75400;SDS011;63974;47.538;18.972;2023-02-28T08:54:09;14.75;;;6.25;;
75400;SDS011;63974;47.538;18.972;2023-02-28T08:57:14;16.42;;;6.95;;
75400;SDS011;63974;47.538;18.972;2023-02-28T09:00:17;14.13;;;6.53;;
75400;SDS011;63974;47.538;18.972;2023-02-28T09:03:21;12.40;;;6.30;;
75400;SDS011;63974;47.538;18.972;2023-02-28T09:06:26;13.90;;;6.18;;
75400;SDS011;63974;47.538;18.972;2023-02-28T09:09:30;13.50;;;6.10;;
75400;SDS011;63974;47.538;18.972;2023-02-28T09:12:33;10.93;;;5.63;;
75400;SDS011;63974;47.538;18.972;2023-02-28T09:15:38;12.57;;;6.50;;
75400;SDS011;63974;47.538;18.972;2023-02-28T09:18:41;8.50;;;4.80;;
75400;SDS011;63974;47.538;18.972;2023-02-28T09:21:45;13.00;;;5.22;;
75400;SDS011;63974;47.538;18.972;2023-02-28T09:24:47;13.60;;;5.82;;
75400;SDS011;63974;47.538;18.972;2023-02-28T09:27:50;11.75;;;6.53;;
75400;SDS011;63974;47.538;18.972;2023-02-28T09:30:53;11.80;;;6.15;;
75400;SDS011;63974;47.538;18.972;2023-02-28T09:33:57;14.37;;;7.10;;
75400;SDS011;63974;47.538;18.972;2023-02-28T09:37:03;11.27;;;6.00;;
75400;SDS011;63974;47.538;18.972;2023-02-28T09:40:06;11.38;;;5.15;;
75400;SDS011;63974;47.538;18.972;2023-02-28T09:43:12;14.88;;;6.80;;
75400;SDS011;63974;47.538;18.972;2023-02-28T09:49:43;14.30;;;6.50;;
75400;SDS011;63974;47.538;18.972;2023-02-28T09:52:49;13.60;;;5.85;;
75400;SDS011;63974;47.538;18.972;2023-02-28T09:55:54;11.25;;;5.97;;
75400;SDS011;63974;47.538;18.972;2023-02-28T10:02:56;12.25;;;5.72;;
75400;SDS011;63974;47.538;18.972;2023-02-28T10:06:13;12.47;;;6.20;;
75400;SDS011;63974;47.538;18.972;2023-02-28T10:09:26;11.10;;;5.32;;
75400;SDS011;63974;47.538;18.972;2023-02-28T10:12:34;11.93;;;5.88;;
75400;SDS011;63974;47.538;18.972;2023-02-28T10:15:43;11.93;;;5.80;;
75400;SDS011;63974;47.538;18.972;2023-02-28T10:18:54;15.38;;;6.97;;
75400;SDS011;63974;47.538;18.972;2023-02-28T10:22:03;14.20;;;6.80;;
75400;SDS011;63974;47.538;18.972;2023-02-28T10:25:23;11.35;;;6.05;;
75400;SDS011;63974;47.538;18.972;2023-02-28T10:28:29;12.23;;;5.65;;
75400;SDS011;63974;47.538;18.972;2023-02-28T10:31:34;13.82;;;6.65;;
75400;SDS011;63974;47.538;18.972;2023-02-28T10:34:38;11.43;;;5.78;;
75400;SDS011;63974;47.538;18.972;2023-02-28T10:37:41;11.93;;;5.73;;
75400;SDS011;63974;47.538;18.972;2023-02-28T10:40:46;14.23;;;6.82;;
75400;SDS011;63974;47.538;18.972;2023-02-28T10:43:49;16.08;;;7.07;;
75400;SDS011;63974;47.538;18.972;2023-02-28T10:46:52;14.45;;;6.45;;
75400;SDS011;63974;47.538;18.972;2023-02-28T10:49:55;14.93;;;6.43;;
75400;SDS011;63974;47.538;18.972;2023-02-28T10:53:14;10.00;;;5.20;;
75400;SDS011;63974;47.538;18.972;2023-02-28T10:56:24;12.60;;;6.55;;
75400;SDS011;63974;47.538;18.972;2023-02-28T10:59:30;18.08;;;7.32;;
75400;SDS011;63974;47.538;18.972;2023-02-28T11:02:34;14.35;;;6.43;;
75400;SDS011;63974;47.538;18.972;2023-02-28T11:05:43;12.45;;;6.28;;
75400;SDS011;63974;47.538;18.972;2023-02-28T11:08:47;14.10;;;6.43;;
75400;SDS011;63974;47.538;18.972;2023-02-28T11:11:58;14.45;;;6.85;;
75400;SDS011;63974;47.538;18.972;2023-02-28T11:21:36;11.63;;;6.05;;
75400;SDS011;63974;47.538;18.972;2023-02-28T11:24:44;14.03;;;5.63;;
75400;SDS011;63974;47.538;18.972;2023-02-28T11:27:50;15.70;;;6.97;;
75400;SDS011;63974;47.538;18.972;2023-02-28T11:34:41;12.68;;;6.32;;
75400;SDS011;63974;47.538;18.972;2023-02-28T11:37:36;12.48;;;6.82;;
75400;SDS011;63974;47.538;18.972;2023-02-28T11:47:06;10.63;;;5.22;;
75400;SDS011;63974;47.538;18.972;2023-02-28T12:20:57;11.75;;;6.65;;
75400;SDS011;63974;47.538;18.972;2023-02-28T12:27:29;13.20;;;7.13;;
75400;SDS011;63974;47.538;18.972;2023-02-28T12:30:48;11.90;;;6.90;;
75400;SDS011;63974;47.538;18.972;2023-02-28T12:33:59;12.50;;;6.35;;
75400;SDS011;63974;47.538;18.972;2023-02-28T12:37:10;14.73;;;6.60;;
75400;SDS011;63974;47.538;18.972;2023-02-28T12:40:21;13.90;;;7.00;;
75400;SDS011;63974;47.538;18.972;2023-02-28T12:43:26;14.82;;;7.38;;
75400;SDS011;63974;47.538;18.972;2023-02-28T12:46:35;15.00;;;7.53;;
75400;SDS011;63974;47.538;18.972;2023-02-28T12:49:44;18.85;;;8.07;;
75400;SDS011;63974;47.538;18.972;2023-02-28T12:56:12;15.90;;;6.80;;
75400;SDS011;63974;47.538;18.972;2023-02-28T12:59:25;14.98;;;7.53;;
75400;SDS011;63974;47.538;18.972;2023-02-28T13:02:44;12.30;;;6.37;;
75400;SDS011;63974;47.538;18.972;2023-02-28T13:09:24;14.70;;;7.45;;
75400;SDS011;63974;47.538;18.972;2023-02-28T13:12:28;18.20;;;7.15;;
75400;SDS011;63974;47.538;18.972;2023-02-28T13:15:31;13.07;;;6.68;;
75400;SDS011;63974;47.538;18.972;2023-02-28T13:18:43;14.90;;;7.43;;
75400;SDS011;63974;47.538;18.972;2023-02-28T13:21:48;13.57;;;7.28;;
75400;SDS011;63974;47.538;18.972;2023-02-28T13:24:53;15.77;;;7.18;;
75400;SDS011;63974;47.538;18.972;2023-02-28T13:27:57;14.18;;;6.75;;
75400;SDS011;63974;47.538;18.972;2023-02-28T13:31:04;12.80;;;7.05;;
75400;SDS011;63974;47.538;18.972;2023-02-28T13:34:13;16.13;;;7.80;;
75400;SDS011;63974;47.538;18.972;2023-02-28T13:40:28;11.43;;;6.90;;
75400;SDS011;63974;47.538;18.972;2023-02-28T13:44:16;13.68;;;6.00;;
75400;SDS011;63974;47.538;18.972;2023-02-28T13:47:33;15.77;;;7.18;;
75400;SDS011;63974;47.538;18.972;2023-02-28T13:50:42;11.27;;;5.73;;
75400;SDS011;63974;47.538;18.972;2023-02-28T13:53:58;11.40;;;5.72;;
75400;SDS011;63974;47.538;18.972;2023-02-28T14:04:00;11.00;;;5.88;;
75400;SDS011;63974;47.538;18.972;2023-02-28T14:07:17;12.17;;;6.20;;
75400;SDS011;63974;47.538;18.972;2023-02-28T14:10:30;12.13;;;6.47;;
75400;SDS011;63974;47.538;18.972;2023-02-28T14:13:42;15.13;;;7.35;;
75400;SDS011;63974;47.538;18.972;2023-02-28T14:16:49;14.43;;;8.02;;
75400;SDS011;63974;47.538;18.972;2023-02-28T14:19:52;15.13;;;8.18;;
75400;SDS011;63974;47.538;18.972;2023-02-28T14:39:16;14.40;;;6.97;;
75400;SDS011;63974;47.538;18.972;2023-02-28T14:42:36;13.68;;;7.72;;
75400;SDS011;63974;47.538;18.972;2023-02-28T14:45:49;14.35;;;6.68;;
75400;SDS011;63974;47.538;18.972;2023-02-28T14:48:55;14.15;;;6.97;;
75400;SDS011;63974;47.538;18.972;2023-02-28T14:52:11;12.98;;;6.72;;
75400;SDS011;63974;47.538;18.972;2023-02-28T14:55:16;11.20;;;5.53;;
75400;SDS011;63974;47.538;18.972;2023-02-28T14:58:26;11.68;;;6.05;;
75400;SDS011;63974;47.538;18.972;2023-02-28T15:01:48;14.52;;;7.15;;
75400;SDS011;63974;47.538;18.972;2023-02-28T15:04:55;13.90;;;7.10;;
75400;SDS011;63974;47.538;18.972;2023-02-28T15:08:11;13.20;;;6.38;;
75400;SDS011;63974;47.538;18.972;2023-02-28T15:11:17;12.97;;;6.70;;
75400;SDS011;63974;47.538;18.972;2023-02-28T15:14:21;13.60;;;7.13;;
75400;SDS011;63974;47.538;18.972;2023-02-28T15:17:24;14.73;;;6.45;;
75400;SDS011;63974;47.538;18.972;2023-02-28T15:20:28;11.13;;;5.45;;
75400;SDS011;63974;47.538;18.972;2023-02-28T15:23:31;13.98;;;7.20;;
75400;SDS011;63974;47.538;18.972;2023-02-28T15:26:42;13.87;;;6.37;;
75400;SDS011;63974;47.538;18.972;2023-02-28T15:29:50;12.98;;;5.65;;
75400;SDS011;63974;47.538;18.972;2023-02-28T15:33:15;12.25;;;6.60;;
75400;SDS011;63974;47.538;18.972;2023-02-28T15:36:24;12.80;;;6.15;;
75400;SDS011;63974;47.538;18.972;2023-02-28T15:39:30;14.13;;;6.35;;
75400;SDS011;63974;47.538;18.972;2023-02-28T15:42:57;11.47;;;6.00;;
75400;SDS011;63974;47.538;18.972;2023-02-28T15:46:07;12.10;;;6.07;;
75400;SDS011;63974;47.538;18.972;2023-02-28T15:49:17;14.27;;;6.68;;
75400;SDS011;63974;47.538;18.972;2023-02-28T15:52:42;13.65;;;5.63;;
75400;SDS011;63974;47.538;18.972;2023-02-28T15:55:54;13.60;;;7.53;;
75400;SDS011;63974;47.538;18.972;2023-02-28T15:59:02;16.90;;;8.57;;
75400;SDS011;63974;47.538;18.972;2023-02-28T16:05:23;16.83;;;8.57;;
75400;SDS011;63974;47.538;18.972;2023-02-28T16:08:32;13.15;;;6.63;;
75400;SDS011;63974;47.538;18.972;2023-02-28T16:11:37;14.52;;;6.88;;
75400;SDS011;63974;47.538;18.972;2023-02-28T16:14:43;14.13;;;7.20;;
75400;SDS011;63974;47.538;18.972;2023-02-28T16:17:48;12.65;;;6.40;;
75400;SDS011;63974;47.538;18.972;2023-02-28T16:20:51;13.40;;;7.68;;
75400;SDS011;63974;47.538;18.972;2023-02-28T16:23:54;15.27;;;7.78;;
75400;SDS011;63974;47.538;18.972;2023-02-28T16:26:57;16.08;;;7.63;;
75400;SDS011;63974;47.538;18.972;2023-02-28T16:30:01;15.90;;;7.30;;
75400;SDS011;63974;47.538;18.972;2023-02-28T16:33:04;15.13;;;6.88;;
75400;SDS011;63974;47.538;18.972;2023-02-28T16:36:09;14.05;;;7.18;;
75400;SDS011;63974;47.538;18.972;2023-02-28T16:39:27;15.23;;;7.30;;
75400;SDS011;63974;47.538;18.972;2023-02-28T16:42:30;12.48;;;7.35;;
75400;SDS011;63974;47.538;18.972;2023-02-28T16:45:33;16.00;;;6.87;;
75400;SDS011;63974;47.538;18.972;2023-02-28T16:48:36;17.33;;;7.30;;
75400;SDS011;63974;47.538;18.972;2023-02-28T16:51:39;15.52;;;7.30;;
75400;SDS011;63974;47.538;18.972;2023-02-28T16:54:42;16.35;;;8.13;;
75400;SDS011;63974;47.538;18.972;2023-02-28T16:57:52;17.77;;;8.00;;
75400;SDS011;63974;47.538;18.972;2023-02-28T17:00:56;23.07;;;9.20;;
75400;SDS011;63974;47.538;18.972;2023-02-28T17:03:59;26.20;;;10.65;;
75400;SDS011;63974;47.538;18.972;2023-02-28T17:07:02;27.80;;;10.75;;
75400;SDS011;63974;47.538;18.972;2023-02-28T17:10:21;25.42;;;9.13;;
75400;SDS011;63974;47.538;18.972;2023-02-28T17:13:25;17.88;;;8.10;;
75400;SDS011;63974;47.538;18.972;2023-02-28T17:16:30;20.23;;;8.20;;
75400;SDS011;63974;47.538;18.972;2023-02-28T17:19:35;15.07;;;6.50;;
75400;SDS011;63974;47.538;18.972;2023-02-28T17:22:40;14.20;;;7.65;;
75400;SDS011;63974;47.538;18.972;2023-02-28T17:25:43;16.77;;;7.22;;
75400;SDS011;63974;47.538;18.972;2023-02-28T17:28:59;19.08;;;8.90;;
75400;SDS011;63974;47.538;18.972;2023-02-28T17:32:02;16.83;;;8.03;;
75400;SDS011;63974;47.538;18.972;2023-02-28T17:35:18;15.32;;;6.88;;
75400;SDS011;63974;47.538;18.972;2023-02-28T17:38:21;15.45;;;7.45;;
75400;SDS011;63974;47.538;18.972;2023-02-28T17:41:25;16.65;;;8.07;;
75400;SDS011;63974;47.538;18.972;2023-02-28T17:44:32;16.15;;;7.35;;
75400;SDS011;63974;47.538;18.972;2023-02-28T17:47:35;17.90;;;7.93;;
75400;SDS011;63974;47.538;18.972;2023-02-28T17:50:39;14.55;;;7.43;;
75400;SDS011;63974;47.538;18.972;2023-02-28T17:53:42;15.70;;;7.28;;
75400;SDS011;63974;47.538;18.972;2023-02-28T17:56:45;13.30;;;5.97;;
75400;SDS011;63974;47.538;18.972;2023-02-28T17:59:48;14.18;;;7.25;;
75400;SDS011;63974;47.538;18.972;2023-02-28T18:02:51;24.57;;;11.20;;
75400;SDS011;63974;47.538;18.972;2023-02-28T18:05:54;15.88;;;7.32;;
75400;SDS011;63974;47.538;18.972;2023-02-28T18:08:59;12.05;;;6.55;;
75400;SDS011;63974;47.538;18.972;2023-02-28T18:12:02;18.00;;;8.90;;
75400;SDS011;63974;47.538;18.972;2023-02-28T18:15:05;16.80;;;8.10;;
75400;SDS011;63974;47.538;18.972;2023-02-28T18:18:08;16.13;;;7.07;;
75400;SDS011;63974;47.538;18.972;2023-02-28T18:21:12;17.27;;;7.75;;
75400;SDS011;63974;47.538;18.972;2023-02-28T18:24:17;16.52;;;7.65;;
75400;SDS011;63974;47.538;18.972;2023-02-28T18:27:21;21.20;;;9.80;;
75400;SDS011;63974;47.538;18.972;2023-02-28T18:30:27;21.33;;;9.68;;
75400;SDS011;63974;47.538;18.972;2023-02-28T18:33:33;18.83;;;8.73;;
75400;SDS011;63974;47.538;18.972;2023-02-28T18:36:36;25.83;;;12.05;;
75400;SDS011;63974;47.538;18.972;2023-02-28T18:39:39;22.35;;;9.68;;
75400;SDS011;63974;47.538;18.972;2023-02-28T18:42:42;16.08;;;7.47;;
75400;SDS011;63974;47.538;18.972;2023-02-28T18:45:47;22.63;;;10.25;;
75400;SDS011;63974;47.538;18.972;2023-02-28T18:48:50;18.97;;;7.90;;
75400;SDS011;63974;47.538;18.972;2023-02-28T18:51:52;29.23;;;11.65;;
75400;SDS011;63974;47.538;18.972;2023-02-28T18:54:56;29.00;;;11.70;;
75400;SDS011;63974;47.538;18.972;2023-02-28T18:57:59;34.28;;;14.82;;
75400;SDS011;63974;47.538;18.972;2023-02-28T19:01:03;32.45;;;11.88;;
75400;SDS011;63974;47.538;18.972;2023-02-28T19:04:06;28.17;;;10.17;;
75400;SDS011;63974;47.538;18.972;2023-02-28T19:07:13;23.10;;;9.68;;
75400;SDS011;63974;47.538;18.972;2023-02-28T19:10:16;19.88;;;9.80;;
75400;SDS011;63974;47.538;18.972;2023-02-28T19:13:20;24.02;;;9.35;;
75400;SDS011;63974;47.538;18.972;2023-02-28T19:16:23;21.52;;;8.98;;
75400;SDS011;63974;47.538;18.972;2023-02-28T19:19:27;22.10;;;9.17;;
75400;SDS011;63974;47.538;18.972;2023-02-28T19:22:30;20.25;;;9.65;;
75400;SDS011;63974;47.538;18.972;2023-02-28T19:25:33;18.05;;;9.05;;
75400;SDS011;63974;47.538;18.972;2023-02-28T19:28:36;20.83;;;9.27;;
75400;SDS011;63974;47.538;18.972;2023-02-28T19:31:41;19.63;;;8.80;;
75400;SDS011;63974;47.538;18.972;2023-02-28T19:34:45;19.40;;;9.03;;
75400;SDS011;63974;47.538;18.972;2023-02-28T19:37:48;21.65;;;9.23;;
75400;SDS011;63974;47.538;18.972;2023-02-28T19:41:00;20.42;;;8.40;;
75400;SDS011;63974;47.538;18.972;2023-02-28T19:44:08;19.70;;;9.30;;
75400;SDS011;63974;47.538;18.972;2023-02-28T19:47:11;27.98;;;12.73;;
75400;SDS011;63974;47.538;18.972;2023-02-28T19:50:15;27.00;;;11.63;;
75400;SDS011;63974;47.538;18.972;2023-02-28T19:53:19;24.30;;;11.65;;
75400;SDS011;63974;47.538;18.972;2023-02-28T19:56:22;25.10;;;10.55;;
75400;SDS011;63974;47.538;18.972;2023-02-28T19:59:27;29.08;;;12.73;;
75400;SDS011;63974;47.538;18.972;2023-02-28T20:02:40;22.60;;;10.57;;
75400;SDS011;63974;47.538;18.972;2023-02-28T20:05:44;22.23;;;9.80;;
75400;SDS011;63974;47.538;18.972;2023-02-28T20:08:48;22.15;;;10.10;;
75400;SDS011;63974;47.538;18.972;2023-02-28T20:11:52;20.60;;;9.20;;
75400;SDS011;63974;47.538;18.972;2023-02-28T20:14:56;18.85;;;8.55;;
75400;SDS011;63974;47.538;18.972;2023-02-28T20:17:59;18.13;;;8.73;;
75400;SDS011;63974;47.538;18.972;2023-02-28T20:21:02;25.93;;;11.40;;
75400;SDS011;63974;47.538;18.972;2023-02-28T20:24:06;41.78;;;16.20;;
75400;SDS011;63974;47.538;18.972;2023-02-28T20:27:11;56.60;;;19.15;;